Time;durP1;ratioP1;P1;durP2;ratioP2;P2;SDS_P1;SDS_P2;PMS_P1;PMS_P2;Temp;Humidity;BMP_temperature;BMP_pressure;BME280_temperature;BME280_humidity;BME280_pressure;Samples;Min_cycle;Max_cycle;Signal;HPM_P1;HPM_P2
2023/05/26 00:00:34;;;;;;;22.30;4.77;;;10.90;5.20;;;;;;5101379;28;20197;-78
2023/05/26 00:03:02;;;;;;;22.80;4.97;;;10.90;1.00;;;;;;5101785;28;20178;-79
2023/05/26 00:05:28;;;;;;;18.33;4.40;;;10.80;29.20;;;;;;5101353;28;20201;-78
2023/05/26 00:07:53;;;;;;;15.23;4.83;;;10.80;61.70;;;;;;5099941;28;20166;-78
2023/05/26 00:10:19;;;;;;;19.87;5.10;;;10.80;1.00;;;;;;5099977;28;20190;-78
2023/05/26 00:12:45;;;;;;;16.80;4.10;;;10.80;1.00;;;;;;5099896;28;20193;-78
2023/05/26 00:15:11;;;;;;;15.57;4.77;;;10.70;1.00;;;;;;5101763;28;20218;-79
2023/05/26 00:17:36;;;;;;;21.67;4.67;;;10.70;1.00;;;;;;5101263;28;20162;-79
2023/05/26 00:20:04;;;;;;;18.87;4.47;;;10.70;1.00;;;;;;5102283;28;20254;-79
2023/05/26 00:22:30;;;;;;;26.47;4.43;;;10.60;1.00;;;;;;5098960;28;20694;-78
2023/05/26 00:24:55;;;;;;;18.43;4.23;;;10.60;1.00;;;;;;5101585;28;20193;-79
2023/05/26 00:27:21;;;;;;;22.07;4.90;;;10.60;1.00;;;;;;5100987;28;20262;-79
2023/05/26 00:29:47;;;;;;;17.83;4.37;;;10.60;1.00;;;;;;5102215;28;20170;-79
2023/05/26 00:32:13;;;;;;;16.23;4.30;;;10.60;1.00;;;;;;5101479;28;20174;-78
2023/05/26 00:34:38;;;;;;;13.10;3.33;;;10.60;1.00;;;;;;5101275;28;20201;-78
2023/05/26 00:37:04;;;;;;;26.10;5.37;;;10.60;1.00;;;;;;5099395;28;20182;-78
2023/05/26 00:39:30;;;;;;;21.97;4.13;;;10.60;1.00;;;;;;5098940;28;20182;-78
2023/05/26 00:41:56;;;;;;;15.47;4.30;;;10.60;1.00;;;;;;5100637;28;20265;-78
2023/05/26 00:44:22;;;;;;;14.33;4.10;;;10.50;1.00;;;;;;5098412;28;20185;-79
2023/05/26 00:46:48;;;;;;;19.10;4.30;;;10.50;1.00;;;;;;5100209;28;20222;-78
2023/05/26 00:49:14;;;;;;;13.60;3.77;;;10.50;1.00;;;;;;5098015;28;20175;-78
2023/05/26 00:51:40;;;;;;;19.50;4.00;;;10.40;1.00;;;;;;5097810;28;20181;-78
2023/05/26 00:54:07;;;;;;;17.00;4.53;;;10.40;1.00;;;;;;5098995;28;20202;-78
2023/05/26 00:56:34;;;;;;;23.73;5.37;;;10.30;1.00;;;;;;5099510;28;20198;-78
2023/05/26 00:59:02;;;;;;;15.97;4.17;;;10.30;1.00;;;;;;5098378;28;20181;-79
2023/05/26 01:01:31;;;;;;;20.37;4.00;;;10.30;1.00;;;;;;5098898;28;20200;-78
2023/05/26 01:03:57;;;;;;;19.57;4.27;;;10.20;1.00;;;;;;5098706;28;20175;-78
2023/05/26 01:06:24;;;;;;;20.03;4.63;;;10.20;1.00;;;;;;5097045;28;20202;-78
2023/05/26 01:08:50;;;;;;;20.40;4.27;;;10.30;1.00;;;;;;5099236;28;20176;-78
2023/05/26 01:11:28;;;;;;;20.77;4.10;;;10.20;1.00;;;;;;5097804;28;20178;-78
2023/05/26 01:14:01;;;;;;;18.30;4.53;;;10.20;1.00;;;;;;5099436;28;20249;-79
2023/05/26 01:16:33;;;;;;;20.40;4.87;;;10.20;1.00;;;;;;5097431;28;20243;-78
2023/05/26 01:19:24;;;;;;;19.07;4.10;;;10.20;1.00;;;;;;5097972;28;20170;-78
2023/05/26 01:21:54;;;;;;;20.30;3.33;;;10.20;1.00;;;;;;5097584;28;20235;-79
2023/05/26 01:24:39;;;;;;;21.87;4.20;;;10.20;1.00;;;;;;5098899;28;20228;-78
2023/05/26 01:27:27;;;;;;;22.97;4.73;;;10.10;1.00;;;;;;5096654;28;20173;-78
2023/05/26 01:29:53;;;;;;;19.90;4.23;;;10.10;1.00;;;;;;5096654;28;20185;-78
2023/05/26 01:32:19;;;;;;;19.57;3.93;;;10.10;1.00;;;;;;5101707;28;20185;-79
2023/05/26 01:34:44;;;;;;;17.83;4.27;;;10.00;1.00;;;;;;5106362;28;20579;-78
2023/05/26 01:37:10;;;;;;;17.53;3.53;;;10.00;1.00;;;;;;5097002;28;20178;-78
2023/05/26 01:39:36;;;;;;;13.40;3.70;;;9.90;1.00;;;;;;5114546;28;20554;-78
2023/05/26 01:42:11;;;;;;;14.03;3.63;;;9.90;1.00;;;;;;5113752;28;20197;-78
2023/05/26 01:44:54;;;;;;;21.17;3.67;;;9.90;1.00;;;;;;5097706;28;20154;-78
2023/05/26 01:47:21;;;;;;;17.63;3.97;;;9.90;2.70;;;;;;5097060;28;20279;-77
2023/05/26 01:49:48;;;;;;;19.73;4.77;;;9.90;1.90;;;;;;5113246;28;20502;-79
2023/05/26 01:52:17;;;;;;;15.57;3.63;;;9.90;1.00;;;;;;5099189;28;20202;-78
2023/05/26 01:54:50;;;;;;;19.43;4.37;;;9.80;18.10;;;;;;5102401;28;20271;-78
2023/05/26 01:57:16;;;;;;;14.73;3.73;;;9.80;1.00;;;;;;5117157;28;20264;-78
2023/05/26 01:59:42;;;;;;;19.70;4.77;;;9.80;6.30;;;;;;5099589;28;20565;-78
2023/05/26 02:02:07;;;;;;;23.70;4.30;;;9.80;1.00;;;;;;5097961;28;20285;-78
2023/05/26 02:04:33;;;;;;;25.73;4.43;;;9.80;1.00;;;;;;5096071;28;20181;-78
2023/05/26 02:07:02;;;;;;;22.77;4.83;;;9.70;1.00;;;;;;5095038;28;20540;-78
2023/05/26 02:09:29;;;;;;;18.33;4.17;;;9.70;19.10;;;;;;5096327;28;20223;-78
2023/05/26 02:11:54;;;;;;;17.50;3.87;;;9.70;22.20;;;;;;5094344;28;20209;-78
2023/05/26 02:14:20;;;;;;;22.27;4.63;;;9.60;17.30;;;;;;5095580;28;20186;-79
2023/05/26 02:16:45;;;;;;;17.07;3.87;;;9.60;26.80;;;;;;5096740;28;20178;-78
2023/05/26 02:19:12;;;;;;;14.80;3.97;;;9.60;58.10;;;;;;5096925;28;20174;-78
2023/05/26 02:21:38;;;;;;;22.23;3.97;;;9.50;70.80;;;;;;5095103;28;20339;-78
2023/05/26 02:24:04;;;;;;;15.97;3.83;;;9.50;65.40;;;;;;5106550;28;20223;-78
2023/05/26 02:26:30;;;;;;;20.37;4.23;;;9.50;64.80;;;;;;5116319;28;20248;-78
2023/05/26 02:28:56;;;;;;;27.70;5.17;;;9.50;82.60;;;;;;5116033;28;20647;-78
2023/05/26 02:31:22;;;;;;;20.20;4.53;;;9.50;71.30;;;;;;5115631;28;20169;-78
2023/05/26 02:33:48;;;;;;;25.53;4.57;;;9.50;88.90;;;;;;5112912;28;20204;-78
2023/05/26 02:36:14;;;;;;;27.77;4.53;;;9.40;98.30;;;;;;5116942;28;20208;-78
2023/05/26 02:38:40;;;;;;;18.73;3.93;;;9.40;84.20;;;;;;5114400;28;20182;-78
2023/05/26 02:41:09;;;;;;;20.37;4.83;;;9.40;94.40;;;;;;5116680;28;20296;-78
2023/05/26 02:43:35;;;;;;;16.07;5.10;;;9.40;99.90;;;;;;5107571;28;20178;-78
2023/05/26 02:46:01;;;;;;;20.47;4.07;;;9.30;99.90;;;;;;5098700;28;20216;-78
2023/05/26 02:48:26;;;;;;;17.23;4.37;;;9.30;99.90;;;;;;5097927;28;20167;-78
2023/05/26 02:50:54;;;;;;;14.47;3.30;;;9.30;99.90;;;;;;5099792;28;20191;-78
2023/05/26 02:53:21;;;;;;;22.60;4.30;;;9.30;99.90;;;;;;5102391;28;20176;-78
2023/05/26 02:55:46;;;;;;;22.23;4.50;;;9.30;99.90;;;;;;5119475;28;20284;-78
2023/05/26 02:58:12;;;;;;;18.53;4.17;;;9.30;99.90;;;;;;5119560;28;20266;-78
2023/05/26 03:00:38;;;;;;;20.83;4.67;;;9.20;99.90;;;;;;5120090;28;20197;-78
2023/05/26 03:03:03;;;;;;;19.97;4.33;;;9.20;99.90;;;;;;5117338;28;20211;-77
2023/05/26 03:05:29;;;;;;;18.07;4.33;;;9.10;99.90;;;;;;5117562;28;20224;-78
2023/05/26 03:07:55;;;;;;;22.27;4.30;;;9.10;99.90;;;;;;5118068;28;20192;-78
2023/05/26 03:10:21;;;;;;;17.27;4.10;;;9.10;99.90;;;;;;5119633;28;20189;-78
2023/05/26 03:12:47;;;;;;;24.30;4.83;;;9.10;99.90;;;;;;5119743;28;20248;-78
2023/05/26 03:15:12;;;;;;;19.93;4.27;;;9.10;99.90;;;;;;5097708;28;20232;-78
2023/05/26 03:17:38;;;;;;;19.23;4.57;;;9.10;99.90;;;;;;5099408;28;20174;-78
2023/05/26 03:20:04;;;;;;;22.57;4.77;;;9.10;99.90;;;;;;5099138;28;20163;-78
2023/05/26 03:22:30;;;;;;;21.93;4.87;;;9.10;99.90;;;;;;5099321;28;20202;-78
2023/05/26 03:24:55;;;;;;;17.93;4.77;;;9.10;99.90;;;;;;5116204;28;20204;-78
2023/05/26 03:27:23;;;;;;;19.03;5.63;;;9.20;99.90;;;;;;5118203;28;20184;-78
2023/05/26 03:29:52;;;;;;;20.70;4.90;;;9.20;99.90;;;;;;5117938;28;20181;-78
2023/05/26 03:32:17;;;;;;;27.13;5.77;;;9.20;99.90;;;;;;5118828;28;20616;-78
2023/05/26 03:34:44;;;;;;;24.60;4.87;;;9.30;99.90;;;;;;5115251;28;20216;-78
2023/05/26 03:37:11;;;;;;;26.80;5.57;;;9.30;99.90;;;;;;5118414;28;20211;-78
2023/05/26 03:39:37;;;;;;;20.50;5.30;;;9.40;99.90;;;;;;5118954;28;20261;-78
2023/05/26 03:42:02;;;;;;;22.13;5.50;;;9.40;99.90;;;;;;5114588;28;20228;-78
2023/05/26 03:44:28;;;;;;;27.67;4.77;;;9.40;99.90;;;;;;5096660;28;20167;-78
2023/05/26 03:46:53;;;;;;;24.87;5.50;;;9.40;99.90;;;;;;5098875;28;20226;-78
2023/05/26 03:49:19;;;;;;;24.33;4.97;;;9.50;99.90;;;;;;5098268;28;20170;-78
2023/05/26 03:51:45;;;;;;;23.20;5.87;;;9.50;99.90;;;;;;5097783;28;20248;-78
2023/05/26 03:54:11;;;;;;;29.37;5.77;;;9.50;99.90;;;;;;5118475;28;20178;-78
2023/05/26 03:56:37;;;;;;;25.50;6.23;;;9.50;99.90;;;;;;5118329;28;20204;-78
2023/05/26 03:59:02;;;;;;;23.60;5.50;;;9.50;99.90;;;;;;5117824;28;20176;-78
2023/05/26 04:01:28;;;;;;;23.53;4.97;;;9.60;99.90;;;;;;5118760;28;20217;-78
2023/05/26 04:03:54;;;;;;;21.17;5.23;;;9.60;99.90;;;;;;5099096;28;20186;-78
2023/05/26 04:06:20;;;;;;;24.57;5.33;;;9.50;99.90;;;;;;5098380;28;20197;-78
2023/05/26 04:08:48;;;;;;;28.20;5.83;;;9.60;99.90;;;;;;5096689;28;20178;-77
2023/05/26 04:11:16;;;;;;;21.70;5.77;;;9.60;99.90;;;;;;5097220;28;20193;-78
2023/05/26 04:13:41;;;;;;;24.30;5.80;;;9.60;99.90;;;;;;5096505;28;20231;-77
2023/05/26 04:16:07;;;;;;;31.13;6.13;;;9.60;99.90;;;;;;5097674;28;20198;-78
2023/05/26 04:18:34;;;;;;;20.63;5.27;;;9.60;99.90;;;;;;5097312;28;20174;-77
2023/05/26 04:20:59;;;;;;;23.20;5.83;;;9.60;99.90;;;;;;5104833;28;20210;-79
2023/05/26 04:23:25;;;;;;;25.67;5.57;;;9.60;96.00;;;;;;5095880;28;20314;-79
2023/05/26 04:25:50;;;;;;;24.63;5.10;;;9.70;99.90;;;;;;5095004;28;20194;-78
2023/05/26 04:28:16;;;;;;;27.57;6.23;;;9.70;99.90;;;;;;5096643;28;20178;-78
2023/05/26 04:30:42;;;;;;;23.27;4.97;;;9.80;89.50;;;;;;5096995;28;20235;-78
2023/05/26 04:33:09;;;;;;;30.27;6.90;;;9.70;47.00;;;;;;5095460;28;20178;-78
2023/05/26 04:35:35;;;;;;;27.07;5.70;;;9.80;73.20;;;;;;5096360;28;20194;-78
2023/05/26 04:38:04;;;;;;;22.97;6.27;;;9.80;38.90;;;;;;5096473;28;20551;-78
2023/05/26 04:40:32;;;;;;;22.93;6.17;;;9.80;67.60;;;;;;5098172;28;20669;-78
2023/05/26 04:43:00;;;;;;;28.50;7.20;;;9.80;46.90;;;;;;5098175;28;20178;-78
2023/05/26 04:45:25;;;;;;;35.87;7.77;;;9.80;20.20;;;;;;5097253;28;20561;-78
2023/05/26 04:47:51;;;;;;;25.37;6.13;;;9.80;21.60;;;;;;5097295;28;20170;-78
2023/05/26 04:50:16;;;;;;;21.07;5.83;;;9.80;22.30;;;;;;5096762;28;20253;-78
2023/05/26 04:52:42;;;;;;;29.10;6.97;;;9.90;40.80;;;;;;5096071;28;20663;-78
2023/05/26 04:55:08;;;;;;;29.77;8.10;;;9.90;14.30;;;;;;5096554;28;20253;-77
2023/05/26 04:57:34;;;;;;;27.07;6.60;;;9.90;3.30;;;;;;5094804;28;20174;-78
2023/05/26 05:00:00;;;;;;;27.93;7.00;;;9.90;10.50;;;;;;5094875;28;20170;-78
2023/05/26 05:02:26;;;;;;;27.30;7.27;;;10.00;1.00;;;;;;5094940;28;20201;-78
2023/05/26 05:04:52;;;;;;;26.00;7.67;;;9.90;1.00;;;;;;5095829;28;20194;-78
2023/05/26 05:07:17;;;;;;;31.40;6.20;;;10.00;1.00;;;;;;5096069;28;20167;-78
2023/05/26 05:09:43;;;;;;;26.37;6.10;;;10.00;1.00;;;;;;5096296;28;20179;-78
2023/05/26 05:12:09;;;;;;;21.60;6.80;;;10.00;1.00;;;;;;5095785;28;20190;-78
2023/05/26 05:14:35;;;;;;;21.27;6.40;;;10.00;1.00;;;;;;5096670;28;20689;-79
2023/05/26 05:17:00;;;;;;;26.30;7.00;;;10.00;1.00;;;;;;5094762;28;20178;-79
2023/05/26 05:19:26;;;;;;;33.70;7.17;;;10.10;1.00;;;;;;5094790;28;20178;-78
2023/05/26 05:21:52;;;;;;;33.40;7.57;;;10.10;1.00;;;;;;5096069;28;20202;-78
2023/05/26 05:24:17;;;;;;;25.40;6.13;;;10.10;1.00;;;;;;5094790;28;20173;-78
2023/05/26 05:26:43;;;;;;;20.93;6.83;;;10.10;1.00;;;;;;5095474;28;20578;-79
2023/05/26 05:29:08;;;;;;;30.70;6.10;;;10.20;1.00;;;;;;5096107;28;20166;-77
2023/05/26 05:31:34;;;;;;;26.63;6.47;;;10.20;1.00;;;;;;5094261;28;20323;-78
2023/05/26 05:33:59;;;;;;;30.97;8.17;;;10.20;1.00;;;;;;5093739;28;20173;-78
2023/05/26 05:36:25;;;;;;;26.57;7.00;;;10.20;1.00;;;;;;5092094;28;20194;-77
2023/05/26 05:38:51;;;;;;;32.17;6.70;;;10.20;1.00;;;;;;5094683;28;20177;-78
2023/05/26 05:41:17;;;;;;;32.40;7.37;;;10.30;1.00;;;;;;5095639;28;20258;-79
2023/05/26 05:43:42;;;;;;;33.97;6.53;;;10.30;1.00;;;;;;5113930;28;20170;-78
2023/05/26 05:46:08;;;;;;;20.43;6.60;;;10.40;1.00;;;;;;5095595;28;20588;-78
2023/05/26 05:48:34;;;;;;;26.77;6.13;;;10.40;1.00;;;;;;5092890;28;20292;-78
2023/05/26 05:51:00;;;;;;;27.60;6.20;;;10.50;1.00;;;;;;5093524;28;20178;-77
2023/05/26 05:53:25;;;;;;;20.70;5.93;;;10.50;1.00;;;;;;5093615;28;20171;-78
2023/05/26 05:55:51;;;;;;;27.27;5.57;;;10.50;1.00;;;;;;5093283;28;20193;-77
2023/05/26 05:58:17;;;;;;;26.50;6.07;;;10.50;1.00;;;;;;5092567;28;20178;-79
2023/05/26 06:00:42;;;;;;;22.87;6.40;;;10.50;1.00;;;;;;5095687;28;20210;-79
2023/05/26 06:03:08;;;;;;;25.10;5.60;;;10.60;1.00;;;;;;5098543;28;20166;-78
2023/05/26 06:05:33;;;;;;;24.83;5.73;;;10.60;1.00;;;;;;5096967;28;20197;-79
2023/05/26 06:07:59;;;;;;;28.53;5.97;;;10.70;1.00;;;;;;5098638;28;20210;-79
2023/05/26 06:10:24;;;;;;;19.70;5.60;;;10.70;1.00;;;;;;5099147;28;20227;-79
2023/05/26 06:12:50;;;;;;;29.17;6.13;;;10.70;1.00;;;;;;5097712;28;20216;-78
2023/05/26 06:15:17;;;;;;;26.43;6.17;;;10.70;1.00;;;;;;5099542;28;20182;-80
2023/05/26 06:17:43;;;;;;;27.33;6.03;;;10.80;1.00;;;;;;5100362;28;20201;-79
2023/05/26 06:20:09;;;;;;;28.43;6.27;;;10.80;1.00;;;;;;5100967;28;20186;-80
2023/05/26 06:22:36;;;;;;;22.63;5.77;;;10.90;1.00;;;;;;5109614;28;20216;-79
2023/05/26 06:25:03;;;;;;;25.87;6.50;;;10.90;1.00;;;;;;5121855;28;20193;-79
2023/05/26 06:27:28;;;;;;;23.97;6.23;;;10.90;1.00;;;;;;5111219;28;20642;-79
2023/05/26 06:29:54;;;;;;;22.47;5.60;;;10.90;1.00;;;;;;5109764;28;20238;-78
2023/05/26 06:32:19;;;;;;;22.23;6.33;;;11.00;1.00;;;;;;5121130;28;20173;-79
2023/05/26 06:34:45;;;;;;;25.30;5.93;;;11.00;1.00;;;;;;5119725;28;20256;-79
2023/05/26 06:37:10;;;;;;;26.50;5.60;;;11.10;1.00;;;;;;5121423;28;20173;-78
2023/05/26 06:39:36;;;;;;;28.10;5.87;;;11.10;1.00;;;;;;5110234;28;20175;-78
2023/05/26 06:42:02;;;;;;;21.07;5.20;;;11.10;1.00;;;;;;5100648;28;20245;-78
2023/05/26 06:44:27;;;;;;;22.77;6.67;;;11.10;1.00;;;;;;5099740;28;20656;-78
2023/05/26 06:46:53;;;;;;;20.40;6.87;;;11.10;1.00;;;;;;5100830;28;20218;-78
2023/05/26 06:49:18;;;;;;;17.97;6.13;;;11.10;1.00;;;;;;5101724;28;20528;-78
2023/05/26 06:51:44;;;;;;;29.07;6.20;;;11.10;1.00;;;;;;5101156;28;20252;-79
2023/05/26 06:54:09;;;;;;;22.47;6.03;;;11.10;1.00;;;;;;5101454;28;20178;-78
2023/05/26 06:56:35;;;;;;;22.83;5.90;;;11.10;1.00;;;;;;5101807;28;20348;-78
2023/05/26 06:59:00;;;;;;;19.63;5.50;;;11.20;1.00;;;;;;5101930;28;20658;-78
2023/05/26 07:01:26;;;;;;;23.13;5.53;;;11.20;1.00;;;;;;5100929;28;20198;-79
2023/05/26 07:03:51;;;;;;;28.00;5.30;;;11.20;1.00;;;;;;5101949;28;20184;-78
2023/05/26 07:06:17;;;;;;;25.80;5.73;;;11.30;1.00;;;;;;5098977;28;20247;-78
2023/05/26 07:08:42;;;;;;;19.17;4.83;;;11.30;1.00;;;;;;5106887;28;20203;-78
2023/05/26 07:11:09;;;;;;;24.97;6.13;;;11.30;1.00;;;;;;5118164;28;20249;-79
2023/05/26 07:13:35;;;;;;;19.10;5.27;;;11.30;1.00;;;;;;5116280;28;20235;-79
2023/05/26 07:16:00;;;;;;;16.73;4.87;;;11.30;99.90;;;;;;5117410;28;20570;-79
2023/05/26 07:18:26;;;;;;;21.63;5.37;;;11.40;1.00;;;;;;5117177;28;20181;-79
2023/05/26 07:20:51;;;;;;;24.17;5.30;;;11.50;1.00;;;;;;5111870;28;20194;-79
2023/05/26 07:23:17;;;;;;;32.73;6.37;;;11.50;1.00;;;;;;5098996;28;20206;-79
2023/05/26 07:25:42;;;;;;;31.07;6.17;;;11.60;1.00;;;;;;5103621;28;20544;-79
2023/05/26 07:28:08;;;;;;;26.57;5.50;;;11.70;1.00;;;;;;5101782;28;20174;-78
2023/05/26 07:30:33;;;;;;;25.93;5.60;;;11.80;1.00;;;;;;5102213;28;20178;-78
2023/05/26 07:32:59;;;;;;;25.53;5.77;;;11.80;1.00;;;;;;5109752;28;20182;-79
2023/05/26 07:35:24;;;;;;;25.00;5.37;;;11.80;99.90;;;;;;5123457;28;20197;-79
2023/05/26 07:37:50;;;;;;;21.73;5.47;;;11.80;99.90;;;;;;5123172;28;20169;-78
2023/05/26 07:40:16;;;;;;;21.13;5.37;;;11.80;99.90;;;;;;5123158;28;20173;-79
2023/05/26 07:42:42;;;;;;;22.80;5.53;;;11.80;99.90;;;;;;5123286;28;20284;-79
2023/05/26 07:45:08;;;;;;;24.27;5.17;;;11.90;99.90;;;;;;5122775;28;20205;-78
2023/05/26 07:47:35;;;;;;;19.67;5.77;;;12.00;99.90;;;;;;5120262;28;20555;-78
2023/05/26 07:50:02;;;;;;;23.83;4.90;;;12.00;99.90;;;;;;5122512;28;20170;-79
2023/05/26 07:52:28;;;;;;;22.53;5.37;;;12.20;99.90;;;;;;5121261;28;20177;-79
2023/05/26 07:54:54;;;;;;;20.40;5.10;;;12.20;99.90;;;;;;5123290;28;20249;-79
2023/05/26 07:57:20;;;;;;;26.00;4.80;;;12.30;99.90;;;;;;5123479;28;20530;-79
2023/05/26 07:59:45;;;;;;;18.47;4.87;;;12.30;99.90;;;;;;5123008;28;20178;-79
2023/05/26 08:02:11;;;;;;;22.87;5.33;;;12.40;99.90;;;;;;5121102;28;20197;-78
2023/05/26 08:04:37;;;;;;;22.83;5.27;;;12.50;99.90;;;;;;5121722;28;20169;-79
2023/05/26 08:07:03;;;;;;;24.17;5.87;;;12.60;99.90;;;;;;5121896;28;20196;-79
2023/05/26 08:09:28;;;;;;;18.10;4.40;;;12.60;99.90;;;;;;5122549;28;20619;-78
2023/05/26 08:11:54;;;;;;;18.77;5.50;;;12.70;99.90;;;;;;5119846;28;20181;-78
2023/05/26 08:14:20;;;;;;;20.97;4.80;;;12.80;99.90;;;;;;5119972;28;20182;-79
2023/05/26 08:16:45;;;;;;;22.57;4.33;;;12.80;99.90;;;;;;5122820;28;20299;-79
2023/05/26 08:19:11;;;;;;;19.07;5.43;;;12.90;99.90;;;;;;5123832;28;20202;-79
2023/05/26 08:21:37;;;;;;;21.40;5.45;;;13.00;99.90;;;;;;5087435;28;1035616;-78
2023/05/26 08:24:02;;;;;;;21.73;5.70;;;13.00;99.90;;;;;;5124116;28;20154;-79
2023/05/26 08:26:28;;;;;;;20.27;5.23;;;13.10;99.90;;;;;;5123074;28;20560;-79
2023/05/26 08:28:53;;;;;;;24.23;5.27;;;13.10;99.90;;;;;;5124176;28;20166;-79
2023/05/26 08:31:19;;;;;;;28.70;5.63;;;13.20;99.90;;;;;;5125138;28;20170;-78
2023/05/26 08:33:45;;;;;;;22.03;5.10;;;13.20;99.90;;;;;;5123091;28;20535;-79
2023/05/26 08:36:11;;;;;;;25.90;5.37;;;13.20;99.90;;;;;;5123555;28;20198;-79
2023/05/26 08:38:36;;;;;;;27.27;5.30;;;13.30;92.00;;;;;;5124957;28;20181;-79
2023/05/26 08:41:04;;;;;;;19.30;5.07;;;13.40;97.00;;;;;;5125536;28;20197;-79
2023/05/26 08:43:44;;;;;;;19.27;4.80;;;13.40;99.90;;;;;;5124730;28;20170;-79
2023/05/26 08:46:12;;;;;;;26.53;5.63;;;13.50;99.90;;;;;;5124483;28;20193;-79
2023/05/26 08:48:39;;;;;;;21.83;5.10;;;13.60;99.90;;;;;;5123820;28;20177;-79
2023/05/26 08:51:08;;;;;;;19.80;4.50;;;13.60;81.60;;;;;;5123874;28;20201;-79
2023/05/26 08:53:34;;;;;;;21.50;4.90;;;13.70;99.90;;;;;;5121599;28;20172;-79
2023/05/26 08:56:00;;;;;;;16.23;5.10;;;13.80;99.90;;;;;;5123159;28;20609;-79
2023/05/26 08:58:27;;;;;;;24.80;5.13;;;13.90;99.90;;;;;;5121337;28;20704;-78
2023/05/26 09:00:54;;;;;;;21.00;4.63;;;13.90;28.40;;;;;;5121544;28;20258;-79
2023/05/26 09:03:20;;;;;;;29.13;5.50;;;14.00;77.70;;;;;;5121702;28;20595;-80
2023/05/26 09:05:46;;;;;;;21.73;4.90;;;14.00;1.00;;;;;;5120924;28;20192;-78
2023/05/26 09:08:12;;;;;;;22.80;5.30;;;14.10;18.70;;;;;;5119080;28;20723;-79
2023/05/26 09:10:38;;;;;;;23.53;5.60;;;14.20;1.00;;;;;;5117433;27;20170;-78
2023/05/26 09:13:08;;;;;;;16.77;4.83;;;14.30;17.40;;;;;;5115417;28;20178;-78
2023/05/26 09:15:36;;;;;;;21.23;4.90;;;14.40;5.30;;;;;;5115473;28;20198;-77
2023/05/26 09:18:11;;;;;;;17.47;4.77;;;14.40;1.00;;;;;;5114141;28;20587;-77
2023/05/26 09:20:48;;;;;;;21.63;5.20;;;14.50;14.00;;;;;;5114320;28;20161;-77
2023/05/26 09:23:19;;;;;;;20.07;4.53;;;14.60;1.00;;;;;;5115763;28;20213;-78
2023/05/26 09:25:46;;;;;;;17.90;5.00;;;14.70;1.00;;;;;;5116102;28;20694;-78
2023/05/26 09:28:13;;;;;;;21.23;5.30;;;14.70;1.00;;;;;;5114915;28;20177;-77
2023/05/26 09:30:41;;;;;;;21.50;5.50;;;14.80;1.00;;;;;;5116012;28;20646;-78
2023/05/26 09:33:09;;;;;;;22.00;6.17;;;14.80;1.00;;;;;;5114827;28;20529;-78
2023/05/26 09:35:46;;;;;;;19.87;4.97;;;14.90;1.00;;;;;;5116670;28;20205;-78
2023/05/26 09:38:14;;;;;;;20.47;5.00;;;15.00;19.60;;;;;;5117048;28;20563;-78
2023/05/26 09:40:41;;;;;;;18.90;4.40;;;15.00;1.00;;;;;;5116689;28;20169;-78
2023/05/26 09:43:07;;;;;;;25.17;5.10;;;15.10;1.00;;;;;;5116524;28;20205;-78
2023/05/26 09:45:35;;;;;;;24.77;5.67;;;15.20;1.00;;;;;;5117685;28;20193;-77
2023/05/26 09:48:05;;;;;;;23.97;6.33;;;15.20;1.00;;;;;;5117093;28;20180;-78
2023/05/26 09:50:32;;;;;;;21.97;4.80;;;15.30;1.00;;;;;;5116572;28;20200;-78
2023/05/26 09:53:00;;;;;;;20.20;5.50;;;15.30;1.00;;;;;;5114725;28;20181;-77
2023/05/26 09:55:26;;;;;;;16.27;4.90;;;15.40;1.00;;;;;;5115987;28;20212;-77
2023/05/26 09:57:53;;;;;;;17.20;5.50;;;15.40;1.00;;;;;;5115767;28;20177;-78
2023/05/26 10:00:20;;;;;;;22.97;5.57;;;15.50;1.00;;;;;;5117716;28;20227;-79
2023/05/26 10:02:47;;;;;;;19.07;4.63;;;15.50;1.00;;;;;;5119717;28;20692;-79
2023/05/26 10:05:13;;;;;;;21.50;5.50;;;15.60;1.00;;;;;;5119896;28;20192;-77
2023/05/26 10:07:41;;;;;;;23.00;5.40;;;15.60;1.00;;;;;;5113948;28;20173;-78
2023/05/26 10:10:10;;;;;;;20.73;5.67;;;15.70;1.00;;;;;;5115088;28;20184;-78
2023/05/26 10:12:36;;;;;;;16.20;4.87;;;15.80;1.00;;;;;;5114709;28;20673;-78
2023/05/26 10:15:03;;;;;;;26.43;5.90;;;15.80;1.00;;;;;;5114325;28;20209;-78
2023/05/26 10:17:29;;;;;;;21.17;5.37;;;15.80;1.00;;;;;;5118939;28;20165;-78
2023/05/26 10:19:56;;;;;;;20.67;4.97;;;15.80;1.00;;;;;;5119746;28;20650;-79
2023/05/26 10:22:31;;;;;;;23.63;5.20;;;15.80;1.00;;;;;;5121125;28;20224;-78
2023/05/26 10:25:11;;;;;;;18.17;5.37;;;15.90;1.00;;;;;;5119210;28;20626;-79
2023/05/26 10:27:53;;;;;;;18.13;4.77;;;15.90;1.00;;;;;;5116281;28;20169;-78
2023/05/26 10:30:20;;;;;;;23.60;6.03;;;16.10;1.00;;;;;;5115507;28;20671;-79
2023/05/26 10:32:51;;;;;;;23.20;5.63;;;16.10;1.00;;;;;;5117027;28;20642;-78
2023/05/26 10:35:24;;;;;;;19.23;5.13;;;16.10;1.00;;;;;;5116376;28;20690;-78
2023/05/26 10:37:53;;;;;;;23.03;5.33;;;16.20;1.00;;;;;;5117424;28;20180;-78
2023/05/26 10:40:44;;;;;;;27.83;6.47;;;16.20;1.00;;;;;;5118216;28;20170;-78
2023/05/26 10:43:21;;;;;;;19.17;6.07;;;16.30;1.00;;;;;;5116846;28;20658;-78
2023/05/26 10:45:58;;;;;;;22.07;5.27;;;16.40;1.00;;;;;;5116752;28;20189;-79
2023/05/26 10:48:41;;;;;;;20.57;5.23;;;16.50;1.00;;;;;;5118101;28;20691;-78
2023/05/26 10:51:08;;;;;;;17.97;4.87;;;16.50;1.00;;;;;;5117717;28;20154;-78
2023/05/26 10:53:35;;;;;;;18.07;5.27;;;16.70;1.00;;;;;;5118336;28;20161;-78
2023/05/26 10:56:02;;;;;;;20.80;5.53;;;16.80;1.00;;;;;;5117232;28;20205;-78
2023/05/26 10:58:49;;;;;;;23.00;5.43;;;16.80;99.90;;;;;;5116058;28;20186;-78
2023/05/26 11:01:30;;;;;;;17.80;5.30;;;16.70;1.00;;;;;;5118301;28;20538;-78
2023/05/26 11:04:05;;;;;;;16.77;5.67;;;16.90;1.00;;;;;;5120569;28;20158;-78
2023/05/26 11:06:43;;;;;;;21.30;4.63;;;17.00;1.00;;;;;;5123346;28;20189;-78
2023/05/26 11:09:09;;;;;;;20.13;4.47;;;17.10;1.00;;;;;;5120377;28;20205;-78
2023/05/26 11:11:38;;;;;;;21.13;5.00;;;17.20;1.00;;;;;;5122519;28;20188;-78
2023/05/26 11:14:12;;;;;;;17.67;4.67;;;17.10;1.00;;;;;;5120784;28;20169;-78
2023/05/26 11:16:42;;;;;;;19.53;4.80;;;17.20;1.00;;;;;;5118236;28;20255;-78
2023/05/26 11:19:10;;;;;;;19.00;4.87;;;17.30;1.00;;;;;;5119550;28;20174;-78
2023/05/26 11:21:37;;;;;;;25.77;5.77;;;17.30;1.00;;;;;;5118406;28;20223;-78
2023/05/26 11:24:04;;;;;;;19.80;5.17;;;17.30;1.00;;;;;;5120706;28;20158;-78
2023/05/26 11:26:30;;;;;;;19.03;5.13;;;17.40;1.00;;;;;;5120322;28;20193;-78
2023/05/26 11:28:57;;;;;;;22.07;5.50;;;17.40;1.00;;;;;;5122121;28;20169;-78
2023/05/26 11:31:27;;;;;;;16.90;4.67;;;17.40;1.00;;;;;;5119954;28;20181;-78
2023/05/26 11:33:54;;;;;;;22.17;5.87;;;17.50;1.00;;;;;;5121150;28;20154;-78
2023/05/26 11:36:21;;;;;;;18.50;4.93;;;17.60;1.00;;;;;;5122462;28;20662;-78
2023/05/26 11:38:51;;;;;;;16.73;5.03;;;17.70;99.90;;;;;;5121881;28;20767;-78
2023/05/26 11:41:16;;;;;;;16.70;5.33;;;17.60;99.90;;;;;;5120807;28;20223;-78
2023/05/26 11:43:46;;;;;;;16.80;4.87;;;17.60;99.90;;;;;;5120022;28;20173;-78
2023/05/26 11:46:14;;;;;;;22.77;4.90;;;17.70;1.00;;;;;;5122713;28;20213;-79
2023/05/26 11:48:41;;;;;;;19.90;5.80;;;17.80;1.00;;;;;;5122614;28;20641;-79
2023/05/26 11:51:20;;;;;;;20.27;4.67;;;17.80;99.90;;;;;;5120856;28;20170;-78
2023/05/26 11:53:52;;;;;;;19.47;4.53;;;17.80;99.90;;;;;;5122062;28;20615;-78
2023/05/26 11:56:17;;;;;;;22.73;5.63;;;17.90;99.90;;;;;;5120367;28;20212;-77
2023/05/26 11:58:47;;;;;;;16.27;5.20;;;17.90;99.90;;;;;;5120180;28;20638;-78
2023/05/26 12:01:13;;;;;;;22.17;4.50;;;18.00;99.90;;;;;;5119879;28;20197;-78
2023/05/26 12:03:41;;;;;;;19.50;4.60;;;18.00;99.90;;;;;;5120120;28;20189;-77
2023/05/26 12:06:17;;;;;;;15.87;3.70;;;18.10;75.90;;;;;;5121122;28;20670;-78
2023/05/26 12:08:53;;;;;;;18.87;4.50;;;18.10;99.90;;;;;;5118980;28;20157;-78
2023/05/26 12:11:23;;;;;;;16.37;4.77;;;18.20;1.00;;;;;;5118554;28;20178;-77
2023/05/26 12:14:03;;;;;;;14.23;4.00;;;18.30;90.00;;;;;;5118083;28;20174;-77
2023/05/26 12:16:30;;;;;;;19.80;4.13;;;18.40;74.40;;;;;;5117196;28;20197;-78
2023/05/26 12:18:57;;;;;;;14.90;3.93;;;18.40;1.00;;;;;;5121553;28;20173;-78
2023/05/26 12:21:25;;;;;;;20.40;4.50;;;18.40;1.00;;;;;;5122179;28;20193;-78
2023/05/26 12:23:50;;;;;;;13.30;4.53;;;18.50;1.00;;;;;;5118724;28;20197;-78
2023/05/26 12:26:20;;;;;;;17.73;4.53;;;18.60;1.00;;;;;;5119230;28;20759;-78
2023/05/26 12:28:45;;;;;;;13.57;3.17;;;18.50;1.00;;;;;;5117740;28;20637;-78
2023/05/26 12:31:11;;;;;;;16.80;4.27;;;18.60;1.00;;;;;;5116875;28;20177;-78
2023/05/26 12:33:37;;;;;;;21.00;4.87;;;18.60;1.00;;;;;;5118560;28;20174;-78
2023/05/26 12:36:04;;;;;;;15.67;4.17;;;18.60;99.90;;;;;;5118361;28;20212;-78
2023/05/26 12:38:40;;;;;;;17.27;4.23;;;18.60;99.90;;;;;;5118709;28;20238;-78
2023/05/26 12:41:06;;;;;;;12.83;4.23;;;18.50;1.00;;;;;;5116483;28;20189;-77
2023/05/26 12:43:31;;;;;;;13.87;4.30;;;18.50;99.90;;;;;;5122466;28;20166;-81
2023/05/26 12:45:57;;;;;;;16.47;3.57;;;18.50;1.00;;;;;;5120145;28;20186;-78